Time;durP1;ratioP1;P1;durP2;ratioP2;P2;SDS_P1;SDS_P2;PMS_P1;PMS_P2;Temp;Humidity;BMP_temperature;BMP_pressure;BME280_temperature;BME280_humidity;BME280_pressure;Samples;Min_cycle;Max_cycle;Signal;HPM_P1;HPM_P2
2022/06/11 00:02:24;;;;;;;10.60;7.43;;;;;;;;;;5111136;27;20388;-70
2022/06/11 00:04:50;;;;;;;11.95;8.10;;;;;;;;;;5110924;28;20123;-70
2022/06/11 00:09:41;;;;;;;11.20;7.47;;;;;;;;;;5111364;27;20414;-71
2022/06/11 00:13:06;;;;;;;10.13;7.25;;;;;;;;;;5111177;27;20447;-71
2022/06/11 00:15:33;;;;;;;11.82;7.80;;;;;;;;;;5109967;28;20404;-71
2022/06/11 00:18:45;;;;;;;11.05;7.85;;;;;;;;;;5111150;27;20414;-71
2022/06/11 00:21:13;;;;;;;11.23;6.75;;;;;;;;;;5111482;28;20095;-71
2022/06/11 00:23:49;;;;;;;12.10;7.68;;;;;;;;;;5112177;27;20385;-71
2022/06/11 00:27:01;;;;;;;11.73;7.90;;;;;;;;;;5111005;27;20119;-71
2022/06/11 00:31:32;;;;;;;10.40;7.10;;;;;;;;;;5111539;27;20401;-72
2022/06/11 00:35:45;;;;;;;12.07;8.10;;;;;;;;;;5111930;27;20397;-70
2022/06/11 00:38:11;;;;;;;10.82;7.80;;;;;;;;;;5111200;28;20107;-70
2022/06/11 00:40:39;;;;;;;10.38;6.85;;;;;;;;;;5126525;28;20069;-70
2022/06/11 00:43:06;;;;;;;9.13;6.85;;;;;;;;;;5111192;28;20104;-71
2022/06/11 00:45:45;;;;;;;10.60;6.97;;;;;;;;;;5111066;28;20054;-71
2022/06/11 00:48:15;;;;;;;10.52;7.07;;;;;;;;;;5110786;28;20020;-71
2022/06/11 00:50:48;;;;;;;13.52;6.70;;;;;;;;;;5110988;28;20024;-71
2022/06/11 00:53:14;;;;;;;;;;;;;;;;;;5111339;28;20035;-71
2022/06/11 00:57:39;;;;;;;9.02;6.28;;;;;;;;;;5111962;27;20401;-70
2022/06/11 01:00:50;;;;;;;9.48;6.22;;;;;;;;;;5111989;27;20573;-70
2022/06/11 01:03:18;;;;;;;9.82;6.70;;;;;;;;;;5110864;28;20024;-70
2022/06/11 01:05:47;;;;;;;10.93;7.47;;;;;;;;;;5111228;28;20380;-70
2022/06/11 01:08:16;;;;;;;10.13;6.97;;;;;;;;;;5110759;28;20435;-71
2022/06/11 01:12:06;;;;;;;10.10;7.03;;;;;;;;;;5111813;27;20393;-70
2022/06/11 01:19:13;;;;;;;10.25;7.00;;;;;;;;;;5111626;27;20381;-71
2022/06/11 01:24:38;;;;;;;10.20;7.32;;;;;;;;;;5111383;27;20393;-71
2022/06/11 01:28:14;;;;;;;11.88;7.65;;;;;;;;;;5111784;27;20373;-71
2022/06/11 01:31:19;;;;;;;12.65;7.18;;;;;;;;;;5110950;27;20397;-71
2022/06/11 01:33:48;;;;;;;11.73;7.78;;;;;;;;;;5111504;28;20039;-70
2022/06/11 01:38:41;;;;;;;10.57;6.97;;;;;;;;;;5110901;27;20986;-70
2022/06/11 01:41:23;;;;;;;11.02;7.15;;;;;;;;;;5111298;28;20484;-70
2022/06/11 01:46:54;;;;;;;10.38;6.93;;;;;;;;;;5111531;27;20477;-71
2022/06/11 01:49:20;;;;;;;11.73;6.93;;;;;;;;;;5111674;28;20086;-70
2022/06/11 01:52:05;;;;;;;11.30;7.43;;;;;;;;;;5111063;28;20030;-71
2022/06/11 01:54:47;;;;;;;12.05;7.50;;;;;;;;;;5111677;28;20099;-71
2022/06/11 01:58:41;;;;;;;10.02;6.75;;;;;;;;;;5111135;27;20911;-70
2022/06/11 02:01:10;;;;;;;11.70;7.40;;;;;;;;;;5111492;28;20459;-71
2022/06/11 02:03:42;;;;;;;11.02;7.55;;;;;;;;;;5111475;28;20028;-70
2022/06/11 02:07:06;;;;;;;11.07;7.07;;;;;;;;;;5111921;27;20404;-71
2022/06/11 02:09:38;;;;;;;34.15;29.63;;;;;;;;;;5127063;28;20028;-71
2022/06/11 02:12:12;;;;;;;12.03;6.43;;;;;;;;;;5110784;28;20027;-71
2022/06/11 02:15:07;;;;;;;11.23;7.43;;;;;;;;;;5111393;28;20264;-71
2022/06/11 02:18:29;;;;;;;13.00;7.30;;;;;;;;;;5111213;27;20418;-71
2022/06/11 02:20:55;;;;;;;9.40;6.53;;;;;;;;;;5111541;28;20027;-71
2022/06/11 02:23:24;;;;;;;10.32;6.07;;;;;;;;;;5111250;28;20035;-71
2022/06/11 02:25:53;;;;;;;10.57;7.13;;;;;;;;;;5109543;28;20426;-71
2022/06/11 02:31:57;;;;;;;9.20;6.18;;;;;;;;;;5111608;27;20414;-71
2022/06/11 02:34:24;;;;;;;9.98;7.15;;;;;;;;;;5126663;28;20020;-71
2022/06/11 02:37:27;;;;;;;12.65;6.28;;;;;;;;;;5111849;27;20385;-71
2022/06/11 02:41:01;;;;;;;9.68;6.05;;;;;;;;;;5111071;27;20113;-70
2022/06/11 02:43:28;;;;;;;9.23;6.28;;;;;;;;;;5111358;28;20048;-71
2022/06/11 02:45:55;;;;;;;8.98;6.47;;;;;;;;;;5111633;28;20471;-71
2022/06/11 02:49:40;;;;;;;8.52;6.07;;;;;;;;;;5111693;27;20465;-71
2022/06/11 02:54:16;;;;;;;9.63;6.50;;;;;;;;;;5111130;27;20872;-71
2022/06/11 02:57:47;;;;;;;8.90;5.90;;;;;;;;;;5111886;27;20856;-71
2022/06/11 03:00:15;;;;;;;9.73;6.47;;;;;;;;;;5111290;28;20024;-70
2022/06/11 03:03:49;;;;;;;9.52;6.38;;;;;;;;;;5112094;27;20385;-71
2022/06/11 03:08:16;;;;;;;10.77;6.80;;;;;;;;;;5070517;28;20395;-71
2022/06/11 03:10:42;;;;;;;10.80;7.22;;;;;;;;;;5070835;28;20100;-71
2022/06/11 03:20:13;;;;;;;14.95;8.43;;;;;;;;;;5173499;27;20106;-71
2022/06/11 03:22:39;;;;;;;11.77;7.05;;;;;;;;;;5152076;27;20147;-71
2022/06/11 03:25:06;;;;;;;13.50;7.47;;;;;;;;;;5152355;27;20023;-71
2022/06/11 03:32:41;;;;;;;10.57;6.45;;;;;;;;;;5131857;27;20725;-71
2022/06/11 03:35:07;;;;;;;9.25;5.75;;;;;;;;;;5111341;28;20030;-71
2022/06/11 03:38:54;;;;;;;9.27;5.70;;;;;;;;;;5111283;27;20838;-70
2022/06/11 03:41:23;;;;;;;8.98;5.70;;;;;;;;;;5111252;28;20020;-71
2022/06/11 03:43:50;;;;;;;9.45;5.93;;;;;;;;;;5110747;28;20028;-71
2022/06/11 03:47:46;;;;;;;10.23;5.40;;;;;;;;;;5111381;27;20776;-70
2022/06/11 03:50:18;;;;;;;9.80;6.57;;;;;;;;;;5111038;28;20023;-71
2022/06/11 03:52:44;;;;;;;8.50;5.78;;;;;;;;;;5111542;28;20028;-70
2022/06/11 03:55:11;;;;;;;9.18;5.50;;;;;;;;;;5111233;28;20023;-71
2022/06/11 04:01:14;;;;;;;8.63;5.65;;;;;;;;;;5111401;27;20385;-70
2022/06/11 04:03:07;;;;;;;7.93;4.97;;;;;;;;;;5111076;28;20103;-70
2022/06/11 04:05:33;;;;;;;8.48;5.68;;;;;;;;;;5110796;28;20024;-71
2022/06/11 04:09:20;;;;;;;9.13;5.35;;;;;;;;;;5112096;27;20426;-71
2022/06/11 04:13:24;;;;;;;9.32;5.68;;;;;;;;;;5111807;27;20372;-70
2022/06/11 04:15:50;;;;;;;9.40;5.82;;;;;;;;;;5111188;28;20471;-70
2022/06/11 04:20:26;;;;;;;7.90;5.18;;;;;;;;;;5111520;27;20796;-70
2022/06/11 04:22:52;;;;;;;8.30;5.70;;;;;;;;;;5111259;28;20030;-70
2022/06/11 04:25:19;;;;;;;7.75;5.03;;;;;;;;;;5111244;28;20099;-71
2022/06/11 04:27:45;;;;;;;10.05;5.88;;;;;;;;;;5111409;28;20038;-71
2022/06/11 04:30:13;;;;;;;8.98;5.90;;;;;;;;;;5111099;28;20028;-71
2022/06/11 04:32:39;;;;;;;8.90;5.65;;;;;;;;;;5110750;28;20028;-71
2022/06/11 04:35:05;;;;;;;;;;;;;;;;;;5111690;28;20042;-70
2022/06/11 04:37:32;;;;;;;207.10;185.40;;;;;;;;;;5109691;28;21013;-70
2022/06/11 04:41:38;;;;;;;257.20;207.32;;;;;;;;;;5111271;27;20422;-71
2022/06/11 04:44:05;;;;;;;279.67;218.90;;;;;;;;;;5111337;28;20127;-70
2022/06/11 04:46:31;;;;;;;217.93;194.18;;;;;;;;;;5110800;28;20028;-70
2022/06/11 04:52:27;;;;;;;216.63;193.27;;;;;;;;;;5111848;27;20765;-70
2022/06/11 04:54:53;;;;;;;173.48;157.93;;;;;;;;;;5110934;28;20382;-71
2022/06/11 04:57:20;;;;;;;158.32;145.30;;;;;;;;;;5111173;28;20032;-71
2022/06/11 04:59:47;;;;;;;173.05;157.70;;;;;;;;;;5111320;28;20016;-71
2022/06/11 05:02:13;;;;;;;167.90;153.38;;;;;;;;;;5110720;28;20020;-71
2022/06/11 05:05:17;;;;;;;157.82;144.75;;;;;;;;;;5111603;27;20418;-70
2022/06/11 05:09:47;;;;;;;161.48;147.93;;;;;;;;;;5112091;27;20388;-70
2022/06/11 05:12:14;;;;;;;159.70;146.25;;;;;;;;;;5111290;28;20530;-70
2022/06/11 05:14:40;;;;;;;160.90;147.43;;;;;;;;;;5110952;28;20476;-71
2022/06/11 05:19:04;;;;;;;162.27;148.43;;;;;;;;;;5071476;28;20619;-71
2022/06/11 05:21:51;;;;;;;180.30;163.48;;;;;;;;;;5111274;27;20385;-71
2022/06/11 05:24:19;;;;;;;174.13;158.57;;;;;;;;;;5111269;28;20023;-73
2022/06/11 05:29:53;;;;;;;182.73;165.63;;;;;;;;;;5110841;27;20423;-72
2022/06/11 05:32:52;;;;;;;177.32;161.05;;;;;;;;;;5111436;27;20392;-71
2022/06/11 05:35:21;;;;;;;185.35;167.85;;;;;;;;;;5110953;28;20030;-71
2022/06/11 05:37:49;;;;;;;185.00;167.50;;;;;;;;;;5111351;28;20020;-71
2022/06/11 05:40:16;;;;;;;187.20;169.48;;;;;;;;;;5111182;28;20031;-71
2022/06/11 05:42:47;;;;;;;215.40;192.05;;;;;;;;;;5111020;28;20031;-71
2022/06/11 05:45:15;;;;;;;269.88;220.68;;;;;;;;;;5109769;28;20032;-72
2022/06/11 05:48:00;;;;;;;254.57;210.95;;;;;;;;;;5111258;27;20389;-71
2022/06/11 05:51:16;;;;;;;193.30;174.43;;;;;;;;;;5110954;27;20757;-71
2022/06/11 05:53:42;;;;;;;198.98;179.25;;;;;;;;;;5111354;28;20107;-71
2022/06/11 05:57:49;;;;;;;204.10;183.02;;;;;;;;;;5111076;27;20955;-71
2022/06/11 06:00:17;;;;;;;234.48;203.23;;;;;;;;;;5111484;28;20156;-71
2022/06/11 06:02:44;;;;;;;304.75;233.35;;;;;;;;;;5111143;28;20024;-72
2022/06/11 06:05:49;;;;;;;263.42;212.68;;;;;;;;;;5111271;27;20453;-72
2022/06/11 06:08:16;;;;;;;272.95;220.48;;;;;;;;;;5111392;28;20030;-71
2022/06/11 06:11:26;;;;;;;292.65;227.15;;;;;;;;;;5111182;27;20422;-72
2022/06/11 06:13:52;;;;;;;297.55;229.73;;;;;;;;;;5111590;28;20487;-72
2022/06/11 06:23:57;;;;;;;294.35;228.43;;;;;;;;;;5111415;27;20424;-72
2022/06/11 06:27:11;;;;;;;319.25;237.40;;;;;;;;;;5111293;27;20393;-72
2022/06/11 06:30:58;;;;;;;338.65;243.20;;;;;;;;;;5111831;27;20753;-72
2022/06/11 06:39:26;;;;;;;362.45;251.68;;;;;;;;;;5110787;27;20838;-71
2022/06/11 06:41:53;;;;;;;361.90;248.38;;;;;;;;;;5111289;28;20024;-72
2022/06/11 06:44:19;;;;;;;345.08;245.40;;;;;;;;;;5111056;28;20103;-72
2022/06/11 06:46:45;;;;;;;319.52;237.57;;;;;;;;;;5110634;28;20052;-72
2022/06/11 06:50:02;;;;;;;337.05;245.35;;;;;;;;;;5111703;27;20392;-72
2022/06/11 06:52:28;;;;;;;334.08;245.38;;;;;;;;;;5111035;28;20107;-72
2022/06/11 06:54:54;;;;;;;323.67;242.90;;;;;;;;;;5111061;28;20057;-72
2022/06/11 06:57:38;;;;;;;327.13;243.65;;;;;;;;;;5111345;27;20769;-71
2022/06/11 07:00:34;;;;;;;321.63;239.60;;;;;;;;;;5111075;27;21092;-71
2022/06/11 07:03:00;;;;;;;352.08;249.30;;;;;;;;;;5111122;28;20379;-72
2022/06/11 07:05:26;;;;;;;351.70;250.38;;;;;;;;;;5109839;28;20032;-73
2022/06/11 07:10:31;;;;;;;313.90;239.43;;;;;;;;;;5091451;27;20394;-73
2022/06/11 07:12:57;;;;;;;322.52;242.85;;;;;;;;;;5090797;28;20492;-72
2022/06/11 07:15:23;;;;;;;346.73;250.20;;;;;;;;;;5090300;28;20051;-73
2022/06/11 07:17:52;;;;;;;348.85;251.02;;;;;;;;;;5090673;28;20028;-72
2022/06/11 07:20:20;;;;;;;334.27;247.18;;;;;;;;;;5090616;28;20503;-72
2022/06/11 07:22:53;;;;;;;353.85;251.98;;;;;;;;;;5090188;28;20473;-73
2022/06/11 07:26:59;;;;;;;353.65;249.65;;;;;;;;;;5111232;27;20441;-72
2022/06/11 07:29:30;;;;;;;348.77;250.50;;;;;;;;;;5111052;28;20028;-72
2022/06/11 07:32:01;;;;;;;342.52;247.75;;;;;;;;;;5111330;28;20043;-71
2022/06/11 07:34:27;;;;;;;342.27;248.95;;;;;;;;;;5111044;28;20080;-72
2022/06/11 07:37:08;;;;;;;338.65;247.98;;;;;;;;;;5111959;27;20400;-71
2022/06/11 07:39:34;;;;;;;342.27;248.60;;;;;;;;;;5109930;28;20395;-72
2022/06/11 07:43:32;;;;;;;330.95;244.52;;;;;;;;;;5110953;27;20389;-71
2022/06/11 07:50:36;;;;;;;331.05;245.43;;;;;;;;;;5110934;27;20422;-71
2022/06/11 07:53:03;;;;;;;341.40;248.18;;;;;;;;;;5111391;28;20460;-72
2022/06/11 07:55:29;;;;;;;333.30;244.18;;;;;;;;;;5111032;28;20024;-71
2022/06/11 07:57:55;;;;;;;357.65;252.18;;;;;;;;;;5110778;28;20098;-72
2022/06/11 08:00:23;;;;;;;336.92;247.02;;;;;;;;;;5110944;28;20034;-72
2022/06/11 08:04:44;;;;;;;304.00;239.35;;;;;;;;;;5110850;27;20831;-71
2022/06/11 08:07:31;;;;;;;257.20;220.27;;;;;;;;;;5173798;27;20579;-72
2022/06/11 08:09:58;;;;;;;284.40;229.73;;;;;;;;;;5152060;27;20019;-72
2022/06/11 08:13:20;;;;;;;332.38;245.98;;;;;;;;;;5111931;27;20422;-71
2022/06/11 08:20:32;;;;;;;370.38;262.30;;;;;;;;;;5111590;27;20405;-73
2022/06/11 08:22:59;;;;;;;324.45;246.95;;;;;;;;;;5111375;28;20099;-72
2022/06/11 08:25:25;;;;;;;312.10;242.57;;;;;;;;;;5110956;28;20035;-73
2022/06/11 08:27:52;;;;;;;381.75;257.88;;;;;;;;;;5111071;28;20024;-73
2022/06/11 08:30:20;;;;;;;290.13;233.82;;;;;;;;;;5110987;28;20464;-72
2022/06/11 08:32:46;;;;;;;261.55;223.68;;;;;;;;;;5110659;28;20035;-72
2022/06/11 08:37:04;;;;;;;291.73;234.43;;;;;;;;;;5111571;27;20942;-71
2022/06/11 08:39:30;;;;;;;311.85;240.18;;;;;;;;;;5110796;28;20073;-71
2022/06/11 08:41:57;;;;;;;264.77;226.73;;;;;;;;;;5111365;28;20020;-71
2022/06/11 08:44:23;;;;;;;325.83;247.65;;;;;;;;;;5111023;28;20068;-72
2022/06/11 08:48:22;;;;;;;3.65;2.35;;;;;;;;;;5111137;27;20170;-71
2022/06/11 08:50:54;;;;;;;3.88;1.55;;;;;;;;;;5111272;28;20028;-71
2022/06/11 08:53:20;;;;;;;1.77;1.35;;;;;;;;;;5111063;28;20052;-71
2022/06/11 08:55:46;;;;;;;3.25;1.40;;;;;;;;;;5111082;28;20024;-72
2022/06/11 08:58:42;;;;;;;2.58;1.70;;;;;;;;;;5111543;28;20027;-72
2022/06/11 09:02:52;;;;;;;2.88;1.40;;;;;;;;;;5111699;27;20380;-73
2022/06/11 09:06:10;;;;;;;1.83;1.48;;;;;;;;;;5111528;27;20920;-71
2022/06/11 09:10:21;;;;;;;1.90;1.05;;;;;;;;;;5111975;27;20401;-71
2022/06/11 09:15:53;;;;;;;5.10;1.48;;;;;;;;;;5070484;28;20395;-71
2022/06/11 09:18:30;;;;;;;1.73;1.00;;;;;;;;;;5066479;28;20037;-71
2022/06/11 09:22:39;;;;;;;1.70;1.00;;;;;;;;;;5111865;27;20811;-71
2022/06/11 09:25:18;;;;;;;2.90;1.27;;;;;;;;;;5111238;28;20391;-70
2022/06/11 09:28:03;;;;;;;3.42;1.38;;;;;;;;;;5110851;28;20024;-71
2022/06/11 09:32:42;;;;;;;8.32;1.70;;;;;;;;;;5111622;27;20396;-71
2022/06/11 09:35:11;;;;;;;1.98;1.40;;;;;;;;;;5110739;28;20077;-71
2022/06/11 09:37:56;;;;;;;2.85;1.85;;;;;;;;;;5111387;28;20023;-71
2022/06/11 09:40:34;;;;;;;3.63;1.92;;;;;;;;;;5111274;28;20476;-71
2022/06/11 09:43:09;;;;;;;4.60;2.45;;;;;;;;;;5110570;28;20024;-71
2022/06/11 09:45:45;;;;;;;4.13;2.25;;;;;;;;;;5109622;28;20081;-73
2022/06/11 09:49:36;;;;;;;3.35;1.80;;;;;;;;;;5111216;27;20422;-71
2022/06/11 09:52:16;;;;;;;3.42;1.80;;;;;;;;;;5111136;28;20020;-71
2022/06/11 09:54:53;;;;;;;4.30;1.73;;;;;;;;;;5111243;28;20035;-71
2022/06/11 09:57:19;;;;;;;4.50;2.28;;;;;;;;;;5110587;28;20474;-71
2022/06/11 10:00:08;;;;;;;5.35;2.25;;;;;;;;;;5109725;28;20061;-71
2022/06/11 10:05:27;;;;;;;3.33;1.98;;;;;;;;;;5110916;28;20428;-71
2022/06/11 10:12:59;;;;;;;5.72;2.30;;;;;;;;;;5111423;27;20393;-71
2022/06/11 10:15:28;;;;;;;4.63;2.10;;;;;;;;;;5108080;28;20067;-71
2022/06/11 10:18:04;;;;;;;6.82;2.17;;;;;;;;;;5110690;28;20031;-71
2022/06/11 10:20:33;;;;;;;2.25;1.48;;;;;;;;;;5111404;28;20035;-72
2022/06/11 10:23:11;;;;;;;3.15;1.98;;;;;;;;;;5110929;28;20081;-71
2022/06/11 10:26:00;;;;;;;3.17;1.70;;;;;;;;;;5110834;28;20084;-71
2022/06/11 10:31:51;;;;;;;4.43;2.30;;;;;;;;;;5111094;27;20430;-71
2022/06/11 10:34:25;;;;;;;1.95;1.27;;;;;;;;;;5111464;28;20099;-71
2022/06/11 10:36:51;;;;;;;2.25;1.42;;;;;;;;;;5110982;28;20045;-71
2022/06/11 10:39:22;;;;;;;2.42;1.25;;;;;;;;;;5110715;28;20073;-71
2022/06/11 10:42:14;;;;;;;2.40;1.10;;;;;;;;;;5111194;28;20022;-71
2022/06/11 10:46:48;;;;;;;2.38;1.17;;;;;;;;;;5111388;27;20462;-71
2022/06/11 10:49:16;;;;;;;2.17;1.17;;;;;;;;;;5111090;28;20027;-71
2022/06/11 10:51:45;;;;;;;2.58;1.02;;;;;;;;;;5110891;28;20020;-71
2022/06/11 10:56:19;;;;;;;1.33;0.80;;;;;;;;;;5111740;27;20474;-71
2022/06/11 11:01:13;;;;;;;1.75;0.80;;;;;;;;;;5111220;27;20788;-72
2022/06/11 11:05:46;;;;;;;3.17;1.20;;;;;;;;;;5111536;27;20537;-72
2022/06/11 11:08:13;;;;;;;1.27;1.10;;;;;;;;;;5110846;28;20421;-71
2022/06/11 11:10:52;;;;;;;1.92;0.93;;;;;;;;;;5111941;27;20426;-72
2022/06/11 11:13:21;;;;;;;1.27;0.90;;;;;;;;;;5110779;28;20077;-71
2022/06/11 11:15:52;;;;;;;1.15;0.70;;;;;;;;;;5111231;28;20024;-71
2022/06/11 11:18:22;;;;;;;1.95;0.80;;;;;;;;;;5109915;28;20031;-71
2022/06/11 11:20:49;;;;;;;2.78;0.80;;;;;;;;;;5109313;28;20027;-71
2022/06/11 11:23:18;;;;;;;4.28;1.00;;;;;;;;;;5110920;28;20024;-71
2022/06/11 11:25:55;;;;;;;0.88;0.70;;;;;;;;;;5111061;28;20044;-71
2022/06/11 11:28:32;;;;;;;1.00;0.60;;;;;;;;;;5110559;28;20028;-71
2022/06/11 11:30:58;;;;;;;0.93;0.60;;;;;;;;;;5110907;28;20042;-72
2022/06/11 11:33:30;;;;;;;2.00;0.60;;;;;;;;;;5110792;28;20020;-71
2022/06/11 11:36:01;;;;;;;0.88;0.70;;;;;;;;;;5110416;28;20028;-71
2022/06/11 11:38:28;;;;;;;2.15;0.60;;;;;;;;;;5111128;28;20020;-71
2022/06/11 11:40:55;;;;;;;0.75;0.40;;;;;;;;;;5109384;28;20027;-71
2022/06/11 11:43:23;;;;;;;1.48;0.60;;;;;;;;;;5109022;28;20020;-71
2022/06/11 11:45:58;;;;;;;1.35;0.80;;;;;;;;;;5110558;28;20024;-71
2022/06/11 11:50:34;;;;;;;1.92;0.70;;;;;;;;;;5111248;27;20706;-72
2022/06/11 11:53:06;;;;;;;1.45;0.85;;;;;;;;;;5111478;28;20103;-72
2022/06/11 11:55:40;;;;;;;6.65;1.17;;;;;;;;;;5110914;28;20027;-71
2022/06/11 11:58:06;;;;;;;0.80;0.73;;;;;;;;;;5111175;28;20047;-71
2022/06/11 12:00:41;;;;;;;9.73;8.68;;;;;;;;;;5110993;28;20016;-72
2022/06/11 12:03:15;;;;;;;2.20;0.93;;;;;;;;;;5110818;28;20023;-72
2022/06/11 12:05:48;;;;;;;0.75;0.55;;;;;;;;;;5111044;28;20022;-73
2022/06/11 12:08:19;;;;;;;2.65;1.08;;;;;;;;;;5111321;28;20475;-72
2022/06/11 12:10:47;;;;;;;2.17;1.02;;;;;;;;;;5110748;28;20039;-72
2022/06/11 12:13:22;;;;;;;2.15;1.00;;;;;;;;;;5111114;28;20023;-72
2022/06/11 12:15:53;;;;;;;1.63;1.00;;;;;;;;;;5110820;28;20027;-72
2022/06/11 12:18:21;;;;;;;1.45;1.10;;;;;;;;;;5110381;28;20081;-72
2022/06/11 12:20:49;;;;;;;3.28;1.40;;;;;;;;;;5110839;28;20028;-71
2022/06/11 12:23:25;;;;;;;2.88;1.60;;;;;;;;;;5110160;28;20023;-72
2022/06/11 12:25:54;;;;;;;1.58;1.23;;;;;;;;;;5110551;28;20028;-72
2022/06/11 12:28:23;;;;;;;5.78;2.08;;;;;;;;;;5126147;28;20073;-72
2022/06/11 12:30:49;;;;;;;4.50;1.92;;;;;;;;;;5125959;28;20059;-72
2022/06/11 12:33:17;;;;;;;3.85;1.90;;;;;;;;;;5110364;28;20020;-72
2022/06/11 12:35:49;;;;;;;4.28;1.70;;;;;;;;;;5110291;28;20099;-72
2022/06/11 12:38:22;;;;;;;2.33;1.27;;;;;;;;;;5110223;28;20016;-72
2022/06/11 12:40:53;;;;;;;2.60;1.50;;;;;;;;;;5110642;28;20514;-72
2022/06/11 12:43:26;;;;;;;1.90;1.45;;;;;;;;;;5110283;28;20415;-72
2022/06/11 12:46:02;;;;;;;5.03;1.45;;;;;;;;;;5109822;28;20376;-73
2022/06/11 12:48:38;;;;;;;3.50;1.40;;;;;;;;;;5109952;28;20050;-73
2022/06/11 12:51:22;;;;;;;3.42;1.50;;;;;;;;;;5110284;28;20020;-73
2022/06/11 12:54:02;;;;;;;1.63;1.20;;;;;;;;;;5110069;28;20027;-72
2022/06/11 12:56:30;;;;;;;1.98;1.42;;;;;;;;;;5125761;28;20016;-72
2022/06/11 12:59:09;;;;;;;3.38;1.70;;;;;;;;;;5109527;28;20468;-72
2022/06/11 13:01:42;;;;;;;2.13;1.23;;;;;;;;;;5097691;28;20020;-73
2022/06/11 13:04:14;;;;;;;4.97;1.52;;;;;;;;;;5096386;28;20020;-73
2022/06/11 13:06:43;;;;;;;4.25;2.05;;;;;;;;;;5096095;28;20024;-73
2022/06/11 13:09:10;;;;;;;1.65;1.33;;;;;;;;;;5096102;28;20043;-73
2022/06/11 13:11:39;;;;;;;2.25;1.30;;;;;;;;;;5096403;28;20024;-73
2022/06/11 13:14:23;;;;;;;2.42;1.52;;;;;;;;;;5096042;28;20024;-73
2022/06/11 13:16:49;;;;;;;6.68;3.15;;;;;;;;;;5096101;28;20103;-73
2022/06/11 13:19:34;;;;;;;1.45;1.13;;;;;;;;;;5095994;28;20046;-73
2022/06/11 13:22:09;;;;;;;4.18;1.85;;;;;;;;;;5095932;28;20028;-73
2022/06/11 13:24:53;;;;;;;3.40;1.80;;;;;;;;;;5095906;28;20024;-73
2022/06/11 13:27:30;;;;;;;2.25;1.48;;;;;;;;;;5095467;28;20050;-73
2022/06/11 13:30:15;;;;;;;2.53;1.85;;;;;;;;;;5095925;28;20052;-73
2022/06/11 13:32:50;;;;;;;2.97;1.60;;;;;;;;;;5095737;28;20484;-73
2022/06/11 13:35:29;;;;;;;2.08;1.35;;;;;;;;;;5095220;28;20498;-73
2022/06/11 13:38:04;;;;;;;2.88;1.60;;;;;;;;;;5095761;28;20062;-72
2022/06/11 13:40:43;;;;;;;3.30;1.70;;;;;;;;;;5095596;28;20027;-72
2022/06/11 13:43:17;;;;;;;3.22;1.45;;;;;;;;;;5095693;28;20035;-73
2022/06/11 13:45:46;;;;;;;4.13;1.70;;;;;;;;;;5095625;28;20022;-73
2022/06/11 13:48:24;;;;;;;3.17;1.83;;;;;;;;;;5095003;28;20499;-72
2022/06/11 13:51:06;;;;;;;3.30;1.67;;;;;;;;;;5095606;28;20392;-73
2022/06/11 13:56:16;;;;;;;4.18;2.00;;;;;;;;;;5094912;28;20454;-72
2022/06/11 13:58:53;;;;;;;5.53;1.95;;;;;;;;;;5095179;28;20028;-72
2022/06/11 14:01:32;;;;;;;2.78;2.15;;;;;;;;;;5095236;28;20024;-72
2022/06/11 14:04:01;;;;;;;3.97;2.25;;;;;;;;;;5094752;28;20020;-72
2022/06/11 14:06:28;;;;;;;2.47;1.77;;;;;;;;;;5095493;28;20020;-72
2022/06/11 14:09:03;;;;;;;4.10;2.25;;;;;;;;;;5094547;28;20059;-72
2022/06/11 14:11:33;;;;;;;2.83;2.30;;;;;;;;;;5094499;28;20556;-72
2022/06/11 14:14:00;;;;;;;7.03;2.35;;;;;;;;;;5094474;28;20482;-72
2022/06/11 14:16:32;;;;;;;4.38;2.45;;;;;;;;;;5094529;28;20020;-72
2022/06/11 14:18:59;;;;;;;4.00;2.75;;;;;;;;;;5095017;28;20051;-72
2022/06/11 14:21:40;;;;;;;5.32;2.85;;;;;;;;;;5094896;28;20027;-72
2022/06/11 14:24:08;;;;;;;6.03;2.50;;;;;;;;;;5110035;28;20483;-72
2022/06/11 14:26:43;;;;;;;4.28;3.10;;;;;;;;;;5094821;28;20091;-72
2022/06/11 14:29:17;;;;;;;4.63;3.03;;;;;;;;;;5094571;28;20107;-73
2022/06/11 14:33:29;;;;;;;4.68;2.38;;;;;;;;;;5111665;27;20392;-71
2022/06/11 14:36:43;;;;;;;5.15;2.85;;;;;;;;;;5111648;27;20426;-73
2022/06/11 14:39:27;;;;;;;4.60;2.90;;;;;;;;;;5110805;28;20422;-73
2022/06/11 14:42:07;;;;;;;4.40;2.83;;;;;;;;;;5111164;28;20020;-72
2022/06/11 14:44:33;;;;;;;5.68;2.80;;;;;;;;;;5111336;28;20486;-72
2022/06/11 14:47:00;;;;;;;5.25;2.70;;;;;;;;;;5111405;28;20410;-73
2022/06/11 14:49:28;;;;;;;4.53;2.47;;;;;;;;;;5111059;28;20047;-73
2022/06/11 14:52:20;;;;;;;5.35;2.80;;;;;;;;;;5110607;28;20049;-73
2022/06/11 14:54:55;;;;;;;4.10;2.50;;;;;;;;;;5093879;28;20395;-71
2022/06/11 14:57:27;;;;;;;4.68;3.10;;;;;;;;;;5111272;28;20020;-73
2022/06/11 15:00:26;;;;;;;7.00;3.15;;;;;;;;;;5111800;27;20411;-71
2022/06/11 15:03:11;;;;;;;4.78;3.25;;;;;;;;;;5111467;28;20019;-71
2022/06/11 15:05:55;;;;;;;6.03;3.33;;;;;;;;;;5110749;28;20030;-71
2022/06/11 15:08:51;;;;;;;5.63;3.17;;;;;;;;;;5111130;28;20028;-71
2022/06/11 15:11:23;;;;;;;5.25;3.70;;;;;;;;;;5111337;28;20039;-71
2022/06/11 15:14:01;;;;;;;7.70;4.03;;;;;;;;;;5110731;28;20028;-72
2022/06/11 15:16:29;;;;;;;10.60;3.28;;;;;;;;;;5111065;28;20545;-71
2022/06/11 15:19:10;;;;;;;5.97;3.40;;;;;;;;;;5109556;28;20039;-71
2022/06/11 15:22:02;;;;;;;6.97;4.03;;;;;;;;;;5110908;28;20024;-72
2022/06/11 15:24:36;;;;;;;7.05;3.13;;;;;;;;;;5107860;28;20040;-71
2022/06/11 15:27:03;;;;;;;6.72;3.60;;;;;;;;;;5110826;28;20479;-71
2022/06/11 15:29:30;;;;;;;5.65;3.58;;;;;;;;;;5109539;28;20120;-72
2022/06/11 15:32:02;;;;;;;6.55;3.75;;;;;;;;;;5110654;28;20055;-72
2022/06/11 15:35:51;;;;;;;6.93;3.70;;;;;;;;;;5111629;27;20842;-72
2022/06/11 15:40:02;;;;;;;6.45;4.40;;;;;;;;;;5111430;27;20414;-71
2022/06/11 15:42:42;;;;;;;6.43;3.63;;;;;;;;;;5110775;28;20024;-71
2022/06/11 15:47:16;;;;;;;6.00;3.85;;;;;;;;;;5071213;28;20988;-71
2022/06/11 15:49:47;;;;;;;7.43;4.35;;;;;;;;;;5070941;28;20028;-69
2022/06/11 15:55:11;;;;;;;7.15;3.72;;;;;;;;;;5111811;27;20113;-71
2022/06/11 15:57:24;;;;;;;6.50;4.10;;;;;;;;;;5071252;28;20795;-70
2022/06/11 15:59:50;;;;;;;6.95;4.50;;;;;;;;;;5070851;28;20025;-71
2022/06/11 16:02:18;;;;;;;6.28;4.05;;;;;;;;;;5070247;28;20031;-71
2022/06/11 16:04:46;;;;;;;6.78;4.25;;;;;;;;;;5070665;28;20021;-71
2022/06/11 16:07:23;;;;;;;6.18;4.00;;;;;;;;;;5070505;28;20031;-71
2022/06/11 16:09:49;;;;;;;9.18;6.00;;;;;;;;;;5070272;28;20047;-72
2022/06/11 16:12:37;;;;;;;5.55;3.70;;;;;;;;;;5070389;28;20031;-71
2022/06/11 16:15:05;;;;;;;8.57;4.38;;;;;;;;;;5070429;28;20044;-71
2022/06/11 16:17:35;;;;;;;7.28;4.60;;;;;;;;;;5069901;28;20029;-71
2022/06/11 16:20:03;;;;;;;6.10;3.72;;;;;;;;;;5070215;28;20021;-71
2022/06/11 16:22:37;;;;;;;5.78;4.15;;;;;;;;;;5069726;28;20033;-71
2022/06/11 16:25:05;;;;;;;8.15;3.92;;;;;;;;;;5052154;28;20032;-72
2022/06/11 16:27:32;;;;;;;10.07;5.28;;;;;;;;;;5070159;28;20021;-72
2022/06/11 16:30:07;;;;;;;6.63;4.22;;;;;;;;;;5051746;28;20036;-72
2022/06/11 16:32:36;;;;;;;6.72;4.65;;;;;;;;;;5070306;28;20021;-72
2022/06/11 16:35:05;;;;;;;6.72;4.30;;;;;;;;;;5069798;28;20064;-72
2022/06/11 16:37:33;;;;;;;4.68;3.53;;;;;;;;;;5069450;28;20036;-71
2022/06/11 16:40:00;;;;;;;6.88;4.43;;;;;;;;;;5070073;28;20040;-71
2022/06/11 16:43:19;;;;;;;6.78;4.05;;;;;;;;;;5111909;27;20388;-71
2022/06/11 16:45:47;;;;;;;7.43;4.22;;;;;;;;;;5110799;28;20035;-71
2022/06/11 16:48:22;;;;;;;6.25;4.03;;;;;;;;;;5111128;28;20027;-72
2022/06/11 16:56:38;;;;;;;8.85;4.25;;;;;;;;;;5111938;27;20389;-70
2022/06/11 16:59:08;;;;;;;5.63;3.58;;;;;;;;;;5110844;28;20506;-71
2022/06/11 17:01:43;;;;;;;6.05;3.65;;;;;;;;;;5111120;28;20024;-71
2022/06/11 17:04:54;;;;;;;6.03;3.72;;;;;;;;;;5110929;27;20389;-70
2022/06/11 17:08:45;;;;;;;7.28;3.80;;;;;;;;;;5111798;27;20393;-70
2022/06/11 17:12:46;;;;;;;8.40;4.50;;;;;;;;;;5131488;27;20177;-70
2022/06/11 17:16:06;;;;;;;7.38;3.67;;;;;;;;;;5071145;28;20399;-70
2022/06/11 17:18:34;;;;;;;5.97;3.60;;;;;;;;;;5070802;28;20492;-70
2022/06/11 17:21:02;;;;;;;7.47;4.30;;;;;;;;;;5070379;28;20025;-70
2022/06/11 17:25:03;;;;;;;6.55;4.40;;;;;;;;;;5111880;27;20396;-72
2022/06/11 17:27:33;;;;;;;6.68;4.43;;;;;;;;;;5109514;28;20034;-73
2022/06/11 17:30:00;;;;;;;7.55;4.18;;;;;;;;;;5111722;28;20456;-73
2022/06/11 17:32:26;;;;;;;7.20;4.47;;;;;;;;;;5111444;28;20446;-72
2022/06/11 17:34:53;;;;;;;7.47;4.50;;;;;;;;;;5109353;28;20081;-72
2022/06/11 17:37:26;;;;;;;7.00;4.30;;;;;;;;;;5111179;28;20479;-72
2022/06/11 17:39:52;;;;;;;12.10;4.78;;;;;;;;;;5110532;28;20016;-71
2022/06/11 17:42:18;;;;;;;8.00;4.05;;;;;;;;;;5110776;28;20035;-72
2022/06/11 17:44:45;;;;;;;7.03;4.53;;;;;;;;;;5109809;28;20058;-72
2022/06/11 17:47:59;;;;;;;5.88;4.10;;;;;;;;;;5111149;27;20993;-71
2022/06/11 17:50:26;;;;;;;6.57;4.22;;;;;;;;;;5111274;28;20024;-71
2022/06/11 17:52:56;;;;;;;7.25;4.63;;;;;;;;;;5111111;28;20033;-72
2022/06/11 17:55:24;;;;;;;7.60;4.93;;;;;;;;;;5110963;28;20027;-72